Elan — WDH9968 — position and weather

sailwx.info

Track history (hours):
 
Tides and Currents Weather Stations Pressure Air Temp Water Temp Dewpoint Dewpoint Depression Visibility Wind Speed Wind Dir Waves Ship Positions

Elan

Owner: Elan Maritime LLC, Berkeley, CA. More information available from US FCC via Universal Licensing System and Coast Guard Vessel Documentation Center.

Last reported at 2018-Jun-19 15:46 UTC. Time now 2018-Jun-19 16:24 UTC.
Position N 37°52' W 122°19'.

Length 17 m.

Type: Pleasure craft. MMSI: 367673390.

Date/timePositionNaut miles runAvg speedWind from/ knotsBaromVisibWave heightAir tempDewpointWater temp
2018-Jun-19 15:46N 37°52' W 122°19'517.7
2018-Jun-19 15:30N 37°49' W 122°23'5 8.1
2018-Jun-19 14:55N 37°52' W 122°19'0 0.0
2018-Jun-18 16:26N 37°52' W 122°19'2 5.4
2018-Jun-18 16:00N 37°51' W 122°21'2 4.3
2018-Jun-18 15:30N 37°52' W 122°19'  
2018-Jun-15 01:44N 37°52' W 122°19'0 0.0
2018-Jun-15 01:29N 37°52' W 122°19'0 0.0
2018-Jun-15 00:53N 37°52' W 122°19'0 0.0
2018-Jun-15 00:29N 37°52' W 122°19'0 0.0
2018-Jun-14 23:59N 37°52' W 122°19'0 0.0
2018-Jun-14 23:29N 37°52' W 122°19'0 0.0
2018-Jun-14 22:56N 37°52' W 122°19'0 0.0
2018-Jun-14 22:24N 37°52' W 122°19'0 0.0
2018-Jun-14 21:54N 37°52' W 122°19'0 0.0
2018-Jun-14 21:27N 37°52' W 122°19'0 0.0
2018-Jun-14 21:00N 37°52' W 122°19'0 0.0
2018-Jun-14 20:30N 37°52' W 122°19'0 0.0
2018-Jun-14 20:00N 37°52' W 122°19'0 0.0
2018-Jun-14 19:27N 37°52' W 122°19'0 0.0
2018-Jun-14 19:00N 37°52' W 122°19'0 0.0
2018-Jun-14 18:30N 37°52' W 122°19'0 0.0
2018-Jun-14 18:00N 37°52' W 122°19'0 0.0
2018-Jun-14 17:27N 37°52' W 122°19'0 0.0
2018-Jun-14 16:51N 37°52' W 122°19'0 0.0
2018-Jun-14 16:27N 37°52' W 122°19'0 0.0
2018-Jun-14 01:02N 37°52' W 122°19'0 0.0
2018-Jun-14 00:59N 37°52' W 122°19'0 0.0
2018-Jun-14 00:29N 37°52' W 122°19'0 0.0
2018-Jun-13 23:59N 37°52' W 122°19'0 0.0
2018-Jun-13 23:26N 37°52' W 122°19'0 0.0
2018-Jun-13 22:59N 37°52' W 122°19'0 0.0
2018-Jun-13 22:26N 37°52' W 122°19'0 0.0
2018-Jun-13 21:59N 37°52' W 122°19'0 0.0
2018-Jun-13 21:29N 37°52' W 122°19'0 0.0
2018-Jun-13 20:53N 37°52' W 122°19'0 0.0
2018-Jun-13 20:29N 37°52' W 122°19'0 0.0
2018-Jun-13 19:59N 37°52' W 122°19'0 0.0
2018-Jun-13 19:29N 37°52' W 122°19'0 0.0
2018-Jun-13 18:59N 37°52' W 122°19'0 0.0
2018-Jun-13 18:26N 37°52' W 122°19'0 0.0
2018-Jun-13 17:59N 37°52' W 122°19'0 0.0
2018-Jun-13 17:29N 37°52' W 122°19'0 0.0
2018-Jun-13 16:59N 37°52' W 122°19'0 0.0
2018-Jun-13 16:26N 37°52' W 122°19'0 0.0
2018-Jun-13 15:59N 37°52' W 122°19'0 0.0
2018-Jun-13 15:29N 37°52' W 122°19'0 0.0
2018-Jun-12 23:22N 37°52' W 122°19'0 0.0
2018-Jun-12 22:58N 37°52' W 122°19'0 0.0
2018-Jun-12 22:28N 37°52' W 122°19'0 0.0
2018-Jun-12 21:58N 37°52' W 122°19'0 0.0
2018-Jun-12 21:28N 37°52' W 122°19'0 0.0
2018-Jun-12 20:58N 37°52' W 122°19'0 0.0
2018-Jun-12 20:28N 37°52' W 122°19'0 0.0
2018-Jun-12 19:58N 37°52' W 122°19'0 0.0
2018-Jun-12 19:25N 37°52' W 122°19'0 0.0
2018-Jun-12 18:58N 37°52' W 122°19'0 0.0
2018-Jun-12 18:28N 37°52' W 122°19'0 0.0
2018-Jun-12 17:58N 37°52' W 122°19'1 1.2
2018-Jun-12 17:30N 37°52' W 122°19'4 7.9
2018-Jun-12 17:00N 37°49' W 122°23'1 1.9
2018-Jun-12 16:22N 37°48' W 122°24'0 0.3
2018-Jun-12 16:00N 37°48' W 122°24'611.3
2018-Jun-12 15:30N 37°52' W 122°19'0 0.0
2018-Jun-12 14:57N 37°52' W 122°19'0 0.0
2018-Jun-11 23:58N 37°52' W 122°19'4 9.3
2018-Jun-11 23:29N 37°49' W 122°23'1 2.6
2018-Jun-11 22:59N 37°50' W 122°22'2 4.7
2018-Jun-11 22:30N 37°48' W 122°23'3 6.0
2018-Jun-11 21:59N 37°51' W 122°22'2 4.8
2018-Jun-11 21:28N 37°52' W 122°19'0 0.0
2018-Jun-11 20:55N 37°52' W 122°19'0 0.0
2018-Jun-11 20:25N 37°52' W 122°19'0 0.0
2018-Jun-11 19:58N 37°52' W 122°19'0 0.0
2018-Jun-11 19:28N 37°52' W 122°19'0 0.0
2018-Jun-11 18:55N 37°52' W 122°19'0 0.0
2018-Jun-11 18:28N 37°52' W 122°19'0 0.0
2018-Jun-11 17:58N 37°52' W 122°19'0 0.4
2018-Jun-11 17:30N 37°52' W 122°19'0 0.0
2018-Jun-11 17:00N 37°52' W 122°19'0 0.0
2018-Jun-11 16:30N 37°52' W 122°19'0 0.0
2018-Jun-11 16:00N 37°52' W 122°19'3 5.8
2018-Jun-11 15:27N 37°50' W 122°23'3 7.4
2018-Jun-11 15:00N 37°52' W 122°19'  
Track history (hours):
 
Tides and Currents Weather Stations Pressure Air Temp Water Temp Dewpoint Dewpoint Depression Visibility Wind Speed Wind Dir Waves Ship Positions

Elan

Owner: Elan Maritime LLC, Berkeley, CA. More information available from US FCC via Universal Licensing System and Coast Guard Vessel Documentation Center.

Last reported at 2018-Jun-19 15:46 UTC. Time now 2018-Jun-19 16:24 UTC.
Position N 37°52' W 122°19'.

Length 17 m.

Type: Pleasure craft. MMSI: 367673390.

Date/timePositionNaut miles runAvg speedWind from/ knotsBaromVisibWave heightAir tempDewpointWater temp
2018-Jun-19 15:46N 37°52' W 122°19'517.7
2018-Jun-19 15:30N 37°49' W 122°23'5 8.1
2018-Jun-19 14:55N 37°52' W 122°19'0 0.0
2018-Jun-18 16:26N 37°52' W 122°19'2 5.4
2018-Jun-18 16:00N 37°51' W 122°21'2 4.3
2018-Jun-18 15:30N 37°52' W 122°19'  
2018-Jun-15 01:44N 37°52' W 122°19'0 0.0
2018-Jun-15 01:29N 37°52' W 122°19'0 0.0
2018-Jun-15 00:53N 37°52' W 122°19'0 0.0
2018-Jun-15 00:29N 37°52' W 122°19'0 0.0
2018-Jun-14 23:59N 37°52' W 122°19'0 0.0
2018-Jun-14 23:29N 37°52' W 122°19'0 0.0
2018-Jun-14 22:56N 37°52' W 122°19'0 0.0
2018-Jun-14 22:24N 37°52' W 122°19'0 0.0
2018-Jun-14 21:54N 37°52' W 122°19'0 0.0
2018-Jun-14 21:27N 37°52' W 122°19'0 0.0
2018-Jun-14 21:00N 37°52' W 122°19'0 0.0
2018-Jun-14 20:30N 37°52' W 122°19'0 0.0
2018-Jun-14 20:00N 37°52' W 122°19'0 0.0
2018-Jun-14 19:27N 37°52' W 122°19'0 0.0
2018-Jun-14 19:00N 37°52' W 122°19'0 0.0
2018-Jun-14 18:30N 37°52' W 122°19'0 0.0
2018-Jun-14 18:00N 37°52' W 122°19'0 0.0
2018-Jun-14 17:27N 37°52' W 122°19'0 0.0
2018-Jun-14 16:51N 37°52' W 122°19'0 0.0
2018-Jun-14 16:27N 37°52' W 122°19'0 0.0
2018-Jun-14 01:02N 37°52' W 122°19'0 0.0
2018-Jun-14 00:59N 37°52' W 122°19'0 0.0
2018-Jun-14 00:29N 37°52' W 122°19'0 0.0
2018-Jun-13 23:59N 37°52' W 122°19'0 0.0
2018-Jun-13 23:26N 37°52' W 122°19'0 0.0
2018-Jun-13 22:59N 37°52' W 122°19'0 0.0
2018-Jun-13 22:26N 37°52' W 122°19'0 0.0
2018-Jun-13 21:59N 37°52' W 122°19'0 0.0
2018-Jun-13 21:29N 37°52' W 122°19'0 0.0
2018-Jun-13 20:53N 37°52' W 122°19'0 0.0
2018-Jun-13 20:29N 37°52' W 122°19'0 0.0
2018-Jun-13 19:59N 37°52' W 122°19'0 0.0
2018-Jun-13 19:29N 37°52' W 122°19'0 0.0
2018-Jun-13 18:59N 37°52' W 122°19'0 0.0
2018-Jun-13 18:26N 37°52' W 122°19'0 0.0
2018-Jun-13 17:59N 37°52' W 122°19'0 0.0
2018-Jun-13 17:29N 37°52' W 122°19'0 0.0
2018-Jun-13 16:59N 37°52' W 122°19'0 0.0
2018-Jun-13 16:26N 37°52' W 122°19'0 0.0
2018-Jun-13 15:59N 37°52' W 122°19'0 0.0
2018-Jun-13 15:29N 37°52' W 122°19'0 0.0
2018-Jun-12 23:22N 37°52' W 122°19'0 0.0
2018-Jun-12 22:58N 37°52' W 122°19'0 0.0
2018-Jun-12 22:28N 37°52' W 122°19'0 0.0
2018-Jun-12 21:58N 37°52' W 122°19'0 0.0
2018-Jun-12 21:28N 37°52' W 122°19'0 0.0
2018-Jun-12 20:58N 37°52' W 122°19'0 0.0
2018-Jun-12 20:28N 37°52' W 122°19'0 0.0
2018-Jun-12 19:58N 37°52' W 122°19'0 0.0
2018-Jun-12 19:25N 37°52' W 122°19'0 0.0
2018-Jun-12 18:58N 37°52' W 122°19'0 0.0
2018-Jun-12 18:28N 37°52' W 122°19'0 0.0
2018-Jun-12 17:58N 37°52' W 122°19'1 1.2
2018-Jun-12 17:30N 37°52' W 122°19'4 7.9
2018-Jun-12 17:00N 37°49' W 122°23'1 1.9
2018-Jun-12 16:22N 37°48' W 122°24'0 0.3
2018-Jun-12 16:00N 37°48' W 122°24'611.3
2018-Jun-12 15:30N 37°52' W 122°19'0 0.0
2018-Jun-12 14:57N 37°52' W 122°19'0 0.0
2018-Jun-11 23:58N 37°52' W 122°19'4 9.3
2018-Jun-11 23:29N 37°49' W 122°23'1 2.6
2018-Jun-11 22:59N 37°50' W 122°22'2 4.7
2018-Jun-11 22:30N 37°48' W 122°23'3 6.0
2018-Jun-11 21:59N 37°51' W 122°22'2 4.8
2018-Jun-11 21:28N 37°52' W 122°19'0 0.0
2018-Jun-11 20:55N 37°52' W 122°19'0 0.0
2018-Jun-11 20:25N 37°52' W 122°19'0 0.0
2018-Jun-11 19:58N 37°52' W 122°19'0 0.0
2018-Jun-11 19:28N 37°52' W 122°19'0 0.0
2018-Jun-11 18:55N 37°52' W 122°19'0 0.0
2018-Jun-11 18:28N 37°52' W 122°19'0 0.0
2018-Jun-11 17:58N 37°52' W 122°19'0 0.4
2018-Jun-11 17:30N 37°52' W 122°19'0 0.0
2018-Jun-11 17:00N 37°52' W 122°19'0 0.0
2018-Jun-11 16:30N 37°52' W 122°19'0 0.0
2018-Jun-11 16:00N 37°52' W 122°19'3 5.8
2018-Jun-11 15:27N 37°50' W 122°23'3 7.4
2018-Jun-11 15:00N 37°52' W 122°19'  

Dump ship's entire track history